createdAt,value
2023-05-12T00:00:29.280Z,6.33
2023-05-12T00:02:59.582Z,6.20
2023-05-12T00:05:29.659Z,6.13
2023-05-12T00:08:02.365Z,6.50
2023-05-12T00:10:32.689Z,6.13
2023-05-12T00:13:02.765Z,6.57
2023-05-12T00:15:33.019Z,6.80
2023-05-12T00:18:03.288Z,6.47
2023-05-12T00:20:34.144Z,6.83
2023-05-12T00:23:06.941Z,6.00
2023-05-12T00:25:38.249Z,7.10
2023-05-12T00:28:08.952Z,6.60
2023-05-12T00:30:39.110Z,6.43
2023-05-12T00:33:09.195Z,6.53
2023-05-12T00:35:39.457Z,6.83
2023-05-12T00:38:13.334Z,6.13
2023-05-12T00:40:46.086Z,6.03
2023-05-12T00:43:16.230Z,6.67
2023-05-12T00:45:46.803Z,6.47
2023-05-12T00:48:17.215Z,6.73
2023-05-12T00:50:47.604Z,6.70
2023-05-12T00:53:20.798Z,6.70
2023-05-12T00:55:51.064Z,7.00
2023-05-12T00:58:22.786Z,6.10
2023-05-12T01:00:57.387Z,6.50
2023-05-12T01:03:28.115Z,6.43
2023-05-12T01:06:09.018Z,6.60
2023-05-12T01:08:44.505Z,6.50
2023-05-12T01:11:16.399Z,5.77
2023-05-12T01:13:46.747Z,7.17
2023-05-12T01:16:21.992Z,6.27
2023-05-12T01:18:57.286Z,6.87
2023-05-12T01:21:27.861Z,6.73
2023-05-12T01:24:04.544Z,6.30
2023-05-12T01:26:38.018Z,8.50
2023-05-12T01:29:10.563Z,6.43
2023-05-12T01:31:40.879Z,6.73
2023-05-12T01:34:11.269Z,6.60
2023-05-12T01:36:43.931Z,7.50
2023-05-12T01:39:14.394Z,6.17
2023-05-12T01:41:52.328Z,6.57
2023-05-12T01:44:26.318Z,6.00
2023-05-12T01:46:58.884Z,6.87
2023-05-12T01:49:29.338Z,6.23
2023-05-12T01:52:02.767Z,6.53
2023-05-12T01:54:34.392Z,6.60
2023-05-12T01:57:08.407Z,6.47
2023-05-12T01:59:41.441Z,6.50
2023-05-12T02:02:15.304Z,6.47
2023-05-12T02:04:45.977Z,6.77
2023-05-12T02:07:16.251Z,7.27
2023-05-12T02:09:51.227Z,6.23
2023-05-12T02:12:25.668Z,6.70
2023-05-12T02:14:58.789Z,6.53
2023-05-12T02:17:29.530Z,7.10
2023-05-12T02:20:04.265Z,6.60
2023-05-12T02:22:34.776Z,6.60
2023-05-12T02:25:05.377Z,6.73
2023-05-12T02:27:38.720Z,6.37
2023-05-12T02:30:11.594Z,7.00
2023-05-12T02:32:42.196Z,6.50
2023-05-12T02:35:14.123Z,7.07
2023-05-12T02:37:45.513Z,6.93
2023-05-12T02:40:16.475Z,7.20
2023-05-12T02:42:49.388Z,6.93
2023-05-12T02:45:19.698Z,6.80
2023-05-12T02:47:50.130Z,6.80
2023-05-12T02:50:21.969Z,7.40
2023-05-12T02:52:53.868Z,6.87
2023-05-12T02:55:24.207Z,7.17
2023-05-12T02:57:57.521Z,7.53
2023-05-12T03:00:30.358Z,6.73
2023-05-12T03:03:00.546Z,6.63
2023-05-12T03:05:31.436Z,6.40
2023-05-12T03:08:04.803Z,7.53
2023-05-12T03:10:36.720Z,7.00
2023-05-12T03:13:09.857Z,7.43
2023-05-12T03:15:40.159Z,7.20
2023-05-12T03:18:20.966Z,7.00
2023-05-12T03:20:52.123Z,7.03
2023-05-12T03:23:26.257Z,7.90
2023-05-12T03:25:56.506Z,7.00
2023-05-12T03:28:32.353Z,8.03
2023-05-12T03:31:02.727Z,7.63
2023-05-12T03:33:33.180Z,9.13
2023-05-12T03:36:03.456Z,8.20
2023-05-12T03:38:34.702Z,10.37
2023-05-12T03:41:08.075Z,8.13
2023-05-12T03:43:41.616Z,7.70
2023-05-12T03:46:12.158Z,7.90
2023-05-12T03:48:42.340Z,8.03
2023-05-12T03:51:12.415Z,8.17
2023-05-12T03:53:45.480Z,8.37
2023-05-12T03:56:17.341Z,8.23
2023-05-12T03:58:50.076Z,8.00
2023-05-12T04:01:20.444Z,7.50
2023-05-12T04:03:50.579Z,7.67
2023-05-12T04:06:20.848Z,7.53
2023-05-12T04:08:50.962Z,7.57
2023-05-12T04:11:21.082Z,7.70
2023-05-12T04:13:54.336Z,9.90
2023-05-12T04:16:24.538Z,7.70
2023-05-12T04:18:54.834Z,8.00
2023-05-12T04:21:25.028Z,7.60
2023-05-12T04:23:55.374Z,7.80
2023-05-12T04:26:29.939Z,7.23
2023-05-12T04:29:03.373Z,7.40
2023-05-12T04:31:33.758Z,7.40
2023-05-12T04:34:07.708Z,7.43
2023-05-12T04:36:38.530Z,7.80
2023-05-12T04:39:09.688Z,11.33
2023-05-12T04:41:41.454Z,7.60
2023-05-12T04:44:14.485Z,8.20
2023-05-12T04:46:44.809Z,7.47
2023-05-12T04:49:15.021Z,7.73
2023-05-12T04:51:45.160Z,7.63
2023-05-12T04:54:15.602Z,8.33
2023-05-12T04:56:46.435Z,7.55
2023-05-12T04:59:19.270Z,8.23
2023-05-12T05:01:51.678Z,8.23
2023-05-12T05:04:25.583Z,7.65
2023-05-12T05:06:55.788Z,7.38
2023-05-12T05:09:27.178Z,8.82
2023-05-12T05:11:57.567Z,7.95
2023-05-12T05:14:30.346Z,7.13
2023-05-12T05:17:00.825Z,6.80
2023-05-12T05:19:44.726Z,9.07
2023-05-12T05:22:22.256Z,8.98
2023-05-12T05:24:52.789Z,7.18
2023-05-12T05:27:22.993Z,7.28
2023-05-12T05:29:56.694Z,7.43
2023-05-12T05:32:27.038Z,7.30
2023-05-12T05:34:57.327Z,7.95
2023-05-12T05:37:27.842Z,7.00
2023-05-12T05:39:59.708Z,7.13
2023-05-12T05:42:30.220Z,12.55
2023-05-12T05:45:03.196Z,9.45
2023-05-12T05:47:34.624Z,7.53
2023-05-12T05:50:04.857Z,6.72
2023-05-12T05:52:37.229Z,6.88
2023-05-12T05:55:08.862Z,7.40
2023-05-12T05:57:39.124Z,6.68
2023-05-12T06:00:14.485Z,7.10
2023-05-12T06:02:47.293Z,6.88
2023-05-12T06:05:21.549Z,7.15
2023-05-12T06:07:51.861Z,7.30
2023-05-12T06:10:22.486Z,9.20
2023-05-12T06:12:53.220Z,7.28
2023-05-12T06:15:27.107Z,8.45
2023-05-12T06:17:57.238Z,7.38
2023-05-12T06:20:27.662Z,7.13
2023-05-12T06:22:58.457Z,8.80
2023-05-12T06:25:28.818Z,8.50
2023-05-12T06:27:59.164Z,8.07
2023-05-12T06:30:31.950Z,8.73
2023-05-12T06:33:02.548Z,7.43
2023-05-12T06:35:32.816Z,6.95
2023-05-12T06:38:06.291Z,7.18
2023-05-12T06:40:36.718Z,6.75
2023-05-12T06:43:07.532Z,9.00
2023-05-12T06:45:41.944Z,8.07
2023-05-12T06:48:12.228Z,7.97
2023-05-12T06:50:42.537Z,7.50
2023-05-12T06:53:12.689Z,6.90
2023-05-12T06:55:44.348Z,7.13
2023-05-12T06:58:14.521Z,7.82
2023-05-12T07:00:47.409Z,6.97
2023-05-12T07:03:17.770Z,6.82
2023-05-12T07:05:48.021Z,6.43
2023-05-12T07:08:18.381Z,6.47
2023-05-12T07:10:48.733Z,8.93
2023-05-12T07:13:19.228Z,9.95
2023-05-12T07:15:51.922Z,7.20
2023-05-12T07:18:22.210Z,7.15
2023-05-12T07:20:52.467Z,6.60
2023-05-12T07:23:22.675Z,7.05
2023-05-12T07:25:52.662Z,6.97
2023-05-12T07:28:22.853Z,6.47
2023-05-12T07:30:55.515Z,9.27
2023-05-12T07:33:25.817Z,6.47
2023-05-12T07:35:55.900Z,6.03
2023-05-12T07:38:26.000Z,6.40
2023-05-12T07:40:56.171Z,6.50
2023-05-12T07:43:26.645Z,5.70
2023-05-12T07:46:01.175Z,5.78
2023-05-12T07:48:31.345Z,5.50
2023-05-12T07:51:01.442Z,6.90
2023-05-12T07:53:45.021Z,5.90
2023-05-12T07:56:15.155Z,5.78
2023-05-12T07:58:47.696Z,5.95
2023-05-12T08:01:20.704Z,5.63
2023-05-12T08:03:51.539Z,4.82
2023-05-12T08:06:21.982Z,5.00
2023-05-12T08:08:52.086Z,5.10
2023-05-12T08:11:22.377Z,4.75
2023-05-12T08:13:52.500Z,5.40
2023-05-12T08:16:25.103Z,5.38
2023-05-12T08:18:55.295Z,5.35
2023-05-12T08:21:25.459Z,5.00
2023-05-12T08:23:55.729Z,5.18
2023-05-12T08:26:25.844Z,5.35
2023-05-12T08:28:56.649Z,4.30
2023-05-12T08:31:29.672Z,4.88
2023-05-12T08:34:09.890Z,4.90
2023-05-12T08:36:40.940Z,4.82
2023-05-12T08:39:11.490Z,4.95
2023-05-12T08:41:46.796Z,5.13
2023-05-12T08:44:18.281Z,4.72
2023-05-12T08:46:51.510Z,4.95
2023-05-12T08:49:24.279Z,4.30
2023-05-12T08:51:58.162Z,4.50
2023-05-12T08:54:30.703Z,4.60
2023-05-12T08:59:34.804Z,6.15
2023-05-12T09:02:11.123Z,6.00
2023-05-12T09:04:41.394Z,4.30
2023-05-12T09:07:12.335Z,4.32
2023-05-12T09:09:47.227Z,3.72
2023-05-12T09:12:22.203Z,4.28
2023-05-12T09:15:01.673Z,4.30
2023-05-12T09:17:34.551Z,4.13
2023-05-12T09:20:08.656Z,3.63
2023-05-12T09:22:40.155Z,4.40
2023-05-12T09:25:20.666Z,4.75
2023-05-12T09:27:52.759Z,4.00
2023-05-12T09:30:38.374Z,4.03
2023-05-12T09:33:12.079Z,4.22
2023-05-12T09:35:43.744Z,4.57
2023-05-12T09:38:15.588Z,3.80
2023-05-12T09:40:46.261Z,3.63
2023-05-12T09:43:16.572Z,3.78
2023-05-12T09:45:47.839Z,4.32
2023-05-12T09:48:21.289Z,3.63
2023-05-12T09:50:54.692Z,3.80
2023-05-12T09:53:24.986Z,3.50
2023-05-12T09:55:55.072Z,3.80
2023-05-12T09:58:27.572Z,3.95
2023-05-12T10:01:20.880Z,4.93
2023-05-12T10:03:56.897Z,3.83
2023-05-12T10:06:30.035Z,4.00
2023-05-12T10:09:12.208Z,3.50
2023-05-12T10:11:43.505Z,3.72
2023-05-12T10:14:13.940Z,3.70
2023-05-12T10:16:45.875Z,3.83
2023-05-12T10:19:20.343Z,3.70
2023-05-12T10:21:50.741Z,3.35
2023-05-12T10:24:21.040Z,3.70
2023-05-12T10:26:51.295Z,3.38
2023-05-12T10:29:22.180Z,3.15
2023-05-12T10:31:52.923Z,3.92
2023-05-12T10:34:26.117Z,4.65
2023-05-12T10:36:56.410Z,6.15
2023-05-12T10:39:33.102Z,3.67
2023-05-12T10:42:09.183Z,3.72
2023-05-12T10:44:50.563Z,4.68
2023-05-12T10:47:20.789Z,4.72
2023-05-12T10:49:59.081Z,3.80
2023-05-12T10:52:29.325Z,3.97
2023-05-12T10:55:04.181Z,3.78
2023-05-12T10:57:35.670Z,3.88
2023-05-12T11:00:06.681Z,4.38
2023-05-12T11:02:38.393Z,3.80
2023-05-12T11:05:15.182Z,4.40
2023-05-12T11:07:52.541Z,4.18
2023-05-12T11:10:24.406Z,4.15
2023-05-12T11:12:57.679Z,3.70
2023-05-12T11:15:28.461Z,3.90
2023-05-12T11:18:05.124Z,3.53
2023-05-12T11:20:38.452Z,4.28
2023-05-12T11:23:08.642Z,3.75
2023-05-12T11:25:39.026Z,3.92
2023-05-12T11:28:14.303Z,3.88
2023-05-12T11:30:54.974Z,3.47
2023-05-12T11:33:28.384Z,4.07
2023-05-12T11:36:01.274Z,3.67
2023-05-12T11:38:31.490Z,3.50
2023-05-12T11:41:01.724Z,3.90
2023-05-12T11:43:33.489Z,3.78
2023-05-12T11:46:03.615Z,3.58
2023-05-12T11:48:37.544Z,4.07
2023-05-12T11:51:11.366Z,4.03
2023-05-12T11:53:43.987Z,3.75
2023-05-12T11:56:22.190Z,4.53
2023-05-12T11:59:00.032Z,4.22
2023-05-12T12:01:30.278Z,3.58
2023-05-12T12:04:00.754Z,3.80
2023-05-12T12:06:34.042Z,3.58
2023-05-12T12:09:04.356Z,3.15
2023-05-12T12:11:34.919Z,3.45
2023-05-12T12:14:05.106Z,3.72
2023-05-12T12:16:35.915Z,4.32
2023-05-12T12:19:07.574Z,3.67
2023-05-12T12:21:40.506Z,3.45
2023-05-12T12:24:11.573Z,3.33
2023-05-12T12:26:41.885Z,4.43
2023-05-12T12:29:12.208Z,3.70
2023-05-12T12:31:42.483Z,3.25
2023-05-12T12:34:12.965Z,3.47
2023-05-12T12:36:46.966Z,3.70
2023-05-12T12:39:19.692Z,3.88
2023-05-12T12:41:50.999Z,3.72
2023-05-12T12:44:21.939Z,3.95
2023-05-12T12:46:52.227Z,3.60
2023-05-12T12:49:22.420Z,3.40
2023-05-12T12:51:55.741Z,4.40
2023-05-12T12:54:27.745Z,3.90
2023-05-12T12:57:02.239Z,3.60
2023-05-12T12:59:32.386Z,3.90
2023-05-12T13:02:02.750Z,3.58
2023-05-12T13:04:33.439Z,3.88
2023-05-12T13:07:06.774Z,4.38
2023-05-12T13:09:37.119Z,3.42
2023-05-12T13:12:08.201Z,3.10
2023-05-12T13:14:40.258Z,3.03
2023-05-12T13:17:11.209Z,3.40
2023-05-12T13:19:42.169Z,3.50
2023-05-12T13:22:15.355Z,3.70
2023-05-12T13:24:45.618Z,3.25
2023-05-12T13:27:18.811Z,3.50
2023-05-12T13:29:49.112Z,3.45
2023-05-12T13:32:21.192Z,3.00
2023-05-12T13:34:51.620Z,4.03
2023-05-12T13:37:24.483Z,3.50
2023-05-12T13:39:54.646Z,3.85
2023-05-12T13:42:24.960Z,3.60
2023-05-12T13:44:56.610Z,3.72
2023-05-12T13:47:27.165Z,3.47
2023-05-12T13:49:57.741Z,3.92
2023-05-12T13:52:30.717Z,3.85
2023-05-12T13:55:21.042Z,3.60
2023-05-12T13:57:51.682Z,4.00
2023-05-12T14:00:22.563Z,3.80
2023-05-12T14:02:52.671Z,3.65
2023-05-12T14:05:23.332Z,4.03
2023-05-12T14:07:56.288Z,4.18
2023-05-12T14:10:26.381Z,4.00
2023-05-12T14:12:56.578Z,3.42
2023-05-12T14:15:36.518Z,4.03
2023-05-12T14:18:17.014Z,3.67
2023-05-12T14:20:47.331Z,3.47
2023-05-12T14:23:20.070Z,3.03
2023-05-12T14:25:50.242Z,3.47
2023-05-12T14:28:20.321Z,3.40
2023-05-12T14:30:50.531Z,3.42
2023-05-12T14:33:20.801Z,3.95
2023-05-12T14:36:03.184Z,3.42
2023-05-12T14:38:42.314Z,4.00
2023-05-12T14:41:12.563Z,3.28
2023-05-12T14:43:42.618Z,4.18
2023-05-12T14:46:13.921Z,3.50
2023-05-12T14:48:44.444Z,3.67
2023-05-12T14:51:14.557Z,3.60
2023-05-12T14:53:47.700Z,3.58
2023-05-12T14:56:17.788Z,4.82
2023-05-12T14:58:47.806Z,3.50
2023-05-12T15:01:17.989Z,3.83
2023-05-12T15:03:48.672Z,3.95
2023-05-12T15:06:18.894Z,7.97
2023-05-12T15:08:52.313Z,3.45
2023-05-12T15:11:22.402Z,4.13
2023-05-12T15:13:52.600Z,4.30
2023-05-12T15:16:23.349Z,3.63
2023-05-12T15:18:58.197Z,4.05
2023-05-12T15:21:28.356Z,4.70
2023-05-12T15:24:01.118Z,4.22
2023-05-12T15:26:33.631Z,4.80
2023-05-12T15:29:05.220Z,3.70
2023-05-12T15:31:35.443Z,3.90
2023-05-12T15:34:06.371Z,3.70
2023-05-12T15:36:36.536Z,6.25
2023-05-12T15:39:09.216Z,4.10
2023-05-12T15:41:39.458Z,4.40
2023-05-12T15:44:09.507Z,3.80
2023-05-12T15:46:39.701Z,4.32
2023-05-12T15:49:10.198Z,3.92
2023-05-12T15:51:40.511Z,3.30
2023-05-12T15:54:13.207Z,3.50
2023-05-12T15:56:43.622Z,3.70
2023-05-12T15:59:14.262Z,3.50
2023-05-12T16:01:44.442Z,3.83
2023-05-12T16:04:14.568Z,3.80
2023-05-12T16:06:44.821Z,4.22
2023-05-12T16:09:17.542Z,4.20
2023-05-12T16:11:48.967Z,3.70
2023-05-12T16:14:22.465Z,3.70
2023-05-12T16:16:53.409Z,6.25
2023-05-12T16:19:23.624Z,3.83
2023-05-12T16:21:54.849Z,4.22
2023-05-12T16:24:28.772Z,6.88
2023-05-12T16:26:58.959Z,3.97
2023-05-12T16:29:29.365Z,4.25
2023-05-12T16:31:59.498Z,4.15
2023-05-12T16:34:29.611Z,4.63
2023-05-12T16:36:59.759Z,5.10
2023-05-12T16:39:34.058Z,4.50
2023-05-12T16:42:04.277Z,3.85
2023-05-12T16:44:35.755Z,3.75
2023-05-12T16:47:08.119Z,4.82
2023-05-12T16:49:38.383Z,4.13
2023-05-12T16:52:10.424Z,4.25
2023-05-12T16:54:44.674Z,3.60
2023-05-12T16:57:14.783Z,3.95
2023-05-12T16:59:44.930Z,4.22
2023-05-12T17:02:15.060Z,4.75
2023-05-12T17:04:46.762Z,3.58
2023-05-12T17:07:16.920Z,3.85
2023-05-12T17:09:49.616Z,5.50
2023-05-12T17:12:19.974Z,3.85
2023-05-12T17:15:03.265Z,3.80
2023-05-12T17:17:37.117Z,3.67
2023-05-12T17:20:09.376Z,4.22
2023-05-12T17:22:44.313Z,5.05
2023-05-12T17:25:17.470Z,4.70
2023-05-12T17:27:48.262Z,4.82
2023-05-12T17:30:21.666Z,3.67
2023-05-12T17:32:52.091Z,4.50
2023-05-12T17:35:22.821Z,5.20
2023-05-12T17:37:55.767Z,5.75
2023-05-12T17:40:28.745Z,4.65
2023-05-12T17:42:58.800Z,4.40
2023-05-12T17:45:28.962Z,4.30
2023-05-12T17:47:59.240Z,4.28
2023-05-12T17:50:29.689Z,4.60
2023-05-12T17:52:59.926Z,4.13
2023-05-12T17:55:32.883Z,4.30
2023-05-12T17:58:03.144Z,4.18
2023-05-12T18:00:33.432Z,4.00
2023-05-12T18:03:03.871Z,5.43
2023-05-12T18:05:35.962Z,4.80
2023-05-12T18:08:07.655Z,5.60
2023-05-12T18:10:41.611Z,4.35
2023-05-12T18:13:11.826Z,4.13
2023-05-12T18:15:42.107Z,4.07
2023-05-12T18:18:12.542Z,5.22
2023-05-12T18:20:43.916Z,7.80
2023-05-12T18:23:14.158Z,5.80
2023-05-12T18:25:47.323Z,5.20
2023-05-12T18:28:17.365Z,5.32
2023-05-12T18:30:47.510Z,4.45
2023-05-12T18:33:17.999Z,4.25
2023-05-12T18:35:48.141Z,5.07
2023-05-12T18:38:18.318Z,4.57
2023-05-12T18:40:51.096Z,4.47
2023-05-12T18:43:21.624Z,4.82
2023-05-12T18:45:51.928Z,4.53
2023-05-12T18:48:22.019Z,4.38
2023-05-12T18:50:52.427Z,5.57
2023-05-12T18:53:22.720Z,6.70
2023-05-12T18:55:55.417Z,5.82
2023-05-12T18:58:40.626Z,6.10
2023-05-12T19:01:11.041Z,5.22
2023-05-12T19:03:41.532Z,4.72
2023-05-12T19:06:14.417Z,8.10
2023-05-12T19:08:44.671Z,6.00
2023-05-12T19:11:17.648Z,8.60
2023-05-12T19:13:50.834Z,6.20
2023-05-12T19:16:24.338Z,6.00
2023-05-12T19:18:54.675Z,9.75
2023-05-12T19:21:25.104Z,5.88
2023-05-12T19:23:55.724Z,5.45
2023-05-12T19:26:28.481Z,5.32
2023-05-12T19:29:00.672Z,5.70
2023-05-12T19:31:31.398Z,6.00
2023-05-12T19:34:01.563Z,5.40
2023-05-12T19:36:32.831Z,4.78
2023-05-12T19:39:03.219Z,4.72
2023-05-12T19:41:36.096Z,5.38
2023-05-12T19:44:08.655Z,7.30
2023-05-12T19:46:39.027Z,4.82
2023-05-12T19:49:09.573Z,5.45
2023-05-12T19:51:39.897Z,4.72
2023-05-12T19:54:10.397Z,4.53
2023-05-12T19:56:43.364Z,4.85
2023-05-12T19:59:13.536Z,4.97
2023-05-12T20:01:53.761Z,5.07
2023-05-12T20:04:38.008Z,5.53
2023-05-12T20:07:35.584Z,5.30
2023-05-12T20:10:31.512Z,5.05
2023-05-12T20:13:07.543Z,4.90
2023-05-12T20:15:44.222Z,5.18
2023-05-12T20:18:17.206Z,5.25
2023-05-12T20:21:05.250Z,5.68
2023-05-12T20:23:35.554Z,5.88
2023-05-12T20:26:10.185Z,5.18
2023-05-12T20:28:42.985Z,5.47
2023-05-12T20:31:14.753Z,5.53
2023-05-12T20:33:45.235Z,5.53
2023-05-12T20:36:22.591Z,4.65
2023-05-12T20:38:52.968Z,5.18
2023-05-12T20:41:23.026Z,5.13
2023-05-12T20:43:56.588Z,4.95
2023-05-12T20:46:28.309Z,5.05
2023-05-12T20:48:58.530Z,6.95
2023-05-12T20:51:28.996Z,5.30
2023-05-12T20:54:14.614Z,5.40
2023-05-12T20:56:46.655Z,4.78
2023-05-12T20:59:20.274Z,4.95
2023-05-12T21:01:50.705Z,4.80
2023-05-12T21:04:20.895Z,5.50
2023-05-12T21:06:53.318Z,4.72
2023-05-12T21:09:24.179Z,4.85
2023-05-12T21:11:54.523Z,5.18
2023-05-12T21:14:27.999Z,5.32
2023-05-12T21:16:58.142Z,5.35
2023-05-12T21:19:28.255Z,5.30
2023-05-12T21:21:59.059Z,4.97
2023-05-12T21:24:29.419Z,5.65
2023-05-12T21:27:00.052Z,6.05
2023-05-12T21:29:32.964Z,6.07
2023-05-12T21:32:07.199Z,5.88
2023-05-12T21:34:37.743Z,5.85
2023-05-12T21:37:12.143Z,5.50
2023-05-12T21:39:42.287Z,6.03
2023-05-12T21:42:12.332Z,6.63
2023-05-12T21:44:45.127Z,5.90
2023-05-12T21:47:15.821Z,5.60
2023-05-12T21:49:48.394Z,5.70
2023-05-12T21:52:34.216Z,6.38
2023-05-12T21:55:05.537Z,5.47
2023-05-12T21:57:37.762Z,5.30
2023-05-12T22:00:20.540Z,6.72
2023-05-12T22:02:50.898Z,6.03
2023-05-12T22:05:21.307Z,5.57
2023-05-12T22:07:51.745Z,6.22
2023-05-12T22:10:22.227Z,6.55
2023-05-12T22:12:52.587Z,5.88
2023-05-12T22:15:25.830Z,5.70
2023-05-12T22:17:56.274Z,5.93
2023-05-12T22:20:29.262Z,6.55
2023-05-12T22:22:59.726Z,5.65
2023-05-12T22:25:29.887Z,5.68
2023-05-12T22:28:00.291Z,5.93
2023-05-12T22:30:33.609Z,6.15
2023-05-12T22:33:03.863Z,6.18
2023-05-12T22:35:36.230Z,5.88
2023-05-12T22:38:06.724Z,5.57
2023-05-12T22:40:37.246Z,6.15
2023-05-12T22:43:07.483Z,5.47
2023-05-12T22:45:40.241Z,7.18
2023-05-12T22:48:11.258Z,8.40
2023-05-12T22:50:45.032Z,6.03
2023-05-12T22:53:15.769Z,6.47
2023-05-12T22:55:47.360Z,5.90
2023-05-12T22:58:17.701Z,6.13
2023-05-12T23:00:52.543Z,6.00
2023-05-12T23:03:22.980Z,6.18
2023-05-12T23:05:53.688Z,6.22
2023-05-12T23:08:27.057Z,6.23
2023-05-12T23:10:58.014Z,6.00
2023-05-12T23:13:28.388Z,6.13
2023-05-12T23:16:01.781Z,5.90
2023-05-12T23:18:32.379Z,6.03
2023-05-12T23:21:02.487Z,5.63
2023-05-12T23:23:33.645Z,6.00
2023-05-12T23:26:04.456Z,5.63
2023-05-12T23:28:34.914Z,6.60
2023-05-12T23:31:08.117Z,6.00
2023-05-12T23:33:38.631Z,7.00
2023-05-12T23:36:09.646Z,6.30
2023-05-12T23:38:39.862Z,6.25
2023-05-12T23:41:10.459Z,6.20
2023-05-12T23:43:41.196Z,6.33
2023-05-12T23:46:13.988Z,6.28
2023-05-12T23:48:44.562Z,6.45
2023-05-12T23:51:19.914Z,6.23
2023-05-12T23:53:50.115Z,6.07
2023-05-12T23:56:20.277Z,6.40
2023-05-12T23:58:50.368Z,6.47
